createdAt,value
2022-08-26T00:00:59.165Z,3.30
2022-08-26T00:03:26.424Z,3.17
2022-08-26T00:05:54.172Z,3.50
2022-08-26T00:08:21.318Z,3.60
2022-08-26T00:10:47.848Z,3.38
2022-08-26T00:13:15.946Z,3.40
2022-08-26T00:15:46.954Z,3.25
2022-08-26T00:18:21.902Z,3.13
2022-08-26T00:20:48.993Z,3.40
2022-08-26T00:23:15.434Z,3.53
2022-08-26T00:25:42.859Z,2.95
2022-08-26T00:28:10.798Z,3.10
2022-08-26T00:30:38.246Z,3.33
2022-08-26T00:33:06.137Z,3.08
2022-08-26T00:35:34.676Z,3.30
2022-08-26T00:38:03.347Z,3.17
2022-08-26T00:40:35.312Z,2.90
2022-08-26T00:43:02.272Z,2.70
2022-08-26T00:45:43.888Z,2.78
2022-08-26T00:48:11.202Z,2.60
2022-08-26T00:50:41.236Z,2.60
2022-08-26T00:53:23.891Z,2.60
2022-08-26T00:56:02.973Z,2.72
2022-08-26T00:58:31.351Z,2.10
2022-08-26T01:00:57.779Z,2.63
2022-08-26T01:03:25.896Z,2.30
2022-08-26T01:05:55.241Z,2.63
2022-08-26T01:08:22.948Z,2.33
2022-08-26T01:10:51.152Z,2.30
2022-08-26T01:13:21.503Z,2.00
2022-08-26T01:15:49.858Z,2.45
2022-08-26T01:18:17.516Z,2.20
2022-08-26T01:20:46.930Z,2.53
2022-08-26T01:23:14.546Z,1.80
2022-08-26T01:25:43.543Z,2.08
2022-08-26T01:28:36.228Z,2.10
2022-08-26T01:31:04.087Z,1.83
2022-08-26T01:33:40.037Z,1.88
2022-08-26T01:36:09.476Z,1.80
2022-08-26T01:38:36.051Z,2.10
2022-08-26T01:41:03.281Z,1.60
2022-08-26T01:43:45.048Z,2.05
2022-08-26T01:46:13.171Z,2.20
2022-08-26T01:48:41.810Z,2.10
2022-08-26T01:51:11.652Z,2.10
2022-08-26T01:53:38.427Z,1.95
2022-08-26T01:56:09.800Z,1.80
2022-08-26T01:58:39.905Z,2.10
2022-08-26T02:01:06.740Z,2.17
2022-08-26T02:03:39.269Z,1.80
2022-08-26T02:06:09.418Z,1.92
2022-08-26T02:08:48.044Z,1.77
2022-08-26T02:11:18.334Z,1.70
2022-08-26T02:13:46.408Z,1.65
2022-08-26T02:16:15.918Z,1.65
2022-08-26T02:18:43.596Z,2.15
2022-08-26T02:21:10.957Z,1.90
2022-08-26T02:23:38.148Z,1.60
2022-08-26T02:26:12.249Z,1.70
2022-08-26T02:28:46.500Z,2.10
2022-08-26T02:31:13.150Z,1.67
2022-08-26T02:33:43.120Z,1.40
2022-08-26T02:36:10.158Z,2.28
2022-08-26T02:38:38.628Z,1.65
2022-08-26T02:41:06.277Z,1.60
2022-08-26T02:43:34.643Z,1.75
2022-08-26T02:46:02.429Z,1.50
2022-08-26T02:48:29.193Z,1.83
2022-08-26T02:50:55.574Z,1.50
2022-08-26T02:53:25.323Z,1.40
2022-08-26T02:55:52.363Z,1.40
2022-08-26T02:58:18.871Z,1.30
2022-08-26T03:00:52.558Z,1.40
2022-08-26T03:03:20.639Z,1.30
2022-08-26T03:05:49.930Z,1.80
2022-08-26T03:08:16.378Z,1.50
2022-08-26T03:10:42.790Z,1.40
2022-08-26T03:13:09.558Z,1.40
2022-08-26T03:15:36.169Z,1.30
2022-08-26T03:18:04.810Z,1.60
2022-08-26T03:20:31.603Z,1.30
2022-08-26T03:22:58.084Z,1.45
2022-08-26T03:25:25.791Z,1.55
2022-08-26T03:27:52.827Z,1.45
2022-08-26T03:30:38.001Z,1.50
2022-08-26T03:33:04.735Z,1.85
2022-08-26T03:35:32.079Z,1.30
2022-08-26T03:37:59.091Z,1.40
2022-08-26T03:40:25.868Z,1.35
2022-08-26T03:42:55.634Z,1.50
2022-08-26T03:45:22.196Z,1.55
2022-08-26T03:47:48.640Z,1.48
2022-08-26T03:50:16.981Z,1.10
2022-08-26T03:52:50.102Z,1.33
2022-08-26T03:55:17.042Z,1.38
2022-08-26T03:57:44.396Z,1.20
2022-08-26T04:00:14.867Z,1.33
2022-08-26T04:02:46.442Z,1.42
2022-08-26T04:05:13.709Z,1.30
2022-08-26T04:07:40.594Z,1.33
2022-08-26T04:10:07.844Z,1.30
2022-08-26T04:12:37.557Z,1.50
2022-08-26T04:15:05.853Z,1.30
2022-08-26T04:17:32.566Z,1.30
2022-08-26T04:19:59.043Z,1.20
2022-08-26T04:22:25.468Z,1.10
2022-08-26T04:24:52.196Z,1.10
2022-08-26T04:27:18.732Z,1.05
2022-08-26T04:29:46.497Z,1.27
2022-08-26T04:32:14.525Z,1.50
2022-08-26T04:34:43.054Z,1.17
2022-08-26T04:37:09.641Z,1.00
2022-08-26T04:39:36.099Z,1.27
2022-08-26T04:42:02.583Z,1.20
2022-08-26T04:44:29.609Z,1.60
2022-08-26T04:46:56.306Z,1.40
2022-08-26T04:49:23.106Z,1.25
2022-08-26T04:51:52.772Z,1.30
2022-08-26T04:54:19.284Z,1.10
2022-08-26T04:56:47.235Z,1.40
2022-08-26T04:59:17.063Z,1.50
2022-08-26T05:01:56.382Z,1.00
2022-08-26T05:04:23.327Z,1.17
2022-08-26T05:06:50.336Z,1.30
2022-08-26T05:09:18.493Z,1.30
2022-08-26T05:11:45.994Z,1.20
2022-08-26T05:14:18.432Z,1.27
2022-08-26T05:16:44.879Z,1.30
2022-08-26T05:19:14.278Z,1.33
2022-08-26T05:21:45.578Z,1.30
2022-08-26T05:24:13.902Z,1.15
2022-08-26T05:26:40.436Z,1.20
2022-08-26T05:29:07.610Z,1.00
2022-08-26T05:31:34.884Z,1.08
2022-08-26T05:34:03.673Z,1.35
2022-08-26T05:36:31.698Z,1.25
2022-08-26T05:38:58.146Z,1.30
2022-08-26T05:41:34.371Z,1.60
2022-08-26T05:44:03.806Z,0.93
2022-08-26T05:46:31.193Z,1.27
2022-08-26T05:48:58.333Z,1.30
2022-08-26T05:51:26.186Z,1.80
2022-08-26T05:53:54.764Z,1.20
2022-08-26T05:56:24.796Z,1.40
2022-08-26T05:58:51.969Z,1.40
2022-08-26T06:01:20.282Z,1.23
2022-08-26T06:03:49.953Z,1.30
2022-08-26T06:06:20.040Z,1.10
2022-08-26T06:08:47.559Z,1.70
2022-08-26T06:11:18.581Z,1.30
2022-08-26T06:13:45.791Z,1.40
2022-08-26T06:16:14.329Z,1.50
2022-08-26T06:18:42.281Z,1.40
2022-08-26T06:21:14.731Z,1.13
2022-08-26T06:24:00.028Z,1.42
2022-08-26T06:26:27.757Z,1.10
2022-08-26T06:28:55.637Z,1.30
2022-08-26T06:31:22.956Z,1.40
2022-08-26T06:33:50.039Z,1.30
2022-08-26T06:36:17.443Z,1.15
2022-08-26T06:38:46.292Z,1.20
2022-08-26T06:41:12.893Z,1.05
2022-08-26T06:43:41.314Z,1.17
2022-08-26T06:46:09.257Z,1.10
2022-08-26T06:48:35.822Z,1.38
2022-08-26T06:51:04.058Z,1.48
2022-08-26T06:53:30.499Z,1.05
2022-08-26T06:55:56.990Z,1.30
2022-08-26T06:58:23.945Z,1.20
2022-08-26T07:00:51.103Z,1.25
2022-08-26T07:03:18.151Z,1.13
2022-08-26T07:05:45.194Z,1.77
2022-08-26T07:08:11.888Z,1.35
2022-08-26T07:10:38.777Z,1.20
2022-08-26T07:13:05.911Z,1.30
2022-08-26T07:15:36.092Z,1.27
2022-08-26T07:18:02.987Z,1.42
2022-08-26T07:20:29.451Z,1.08
2022-08-26T07:22:56.025Z,1.15
2022-08-26T07:25:22.471Z,1.40
2022-08-26T07:27:54.470Z,1.50
2022-08-26T07:30:21.176Z,1.20
2022-08-26T07:32:48.066Z,1.20
2022-08-26T07:35:14.628Z,1.17
2022-08-26T07:37:41.067Z,1.20
2022-08-26T07:40:09.479Z,1.10
2022-08-26T07:42:36.033Z,1.17
2022-08-26T07:45:02.478Z,1.00
2022-08-26T07:47:29.051Z,1.05
2022-08-26T07:49:56.050Z,1.10
2022-08-26T07:52:26.379Z,1.10
2022-08-26T07:54:54.710Z,1.20
2022-08-26T07:57:21.204Z,1.00
2022-08-26T07:59:50.633Z,1.33
2022-08-26T08:02:17.170Z,1.42
2022-08-26T08:04:43.614Z,1.25
2022-08-26T08:07:11.547Z,0.90
2022-08-26T08:09:38.517Z,1.13
2022-08-26T08:12:07.533Z,1.05
2022-08-26T08:14:36.484Z,1.80
2022-08-26T08:17:03.708Z,1.30
2022-08-26T08:19:37.031Z,1.10
2022-08-26T08:22:06.881Z,1.52
2022-08-26T08:24:44.623Z,1.05
2022-08-26T08:27:10.987Z,1.23
2022-08-26T08:29:38.473Z,1.13
2022-08-26T08:32:05.375Z,0.98
2022-08-26T08:34:32.996Z,1.20
2022-08-26T08:36:59.461Z,1.13
2022-08-26T08:39:26.607Z,1.02
2022-08-26T08:42:12.144Z,1.02
2022-08-26T08:44:40.993Z,1.00
2022-08-26T08:47:30.490Z,1.15
2022-08-26T08:50:00.209Z,1.30
2022-08-26T08:52:32.085Z,1.08
2022-08-26T08:54:58.597Z,0.95
2022-08-26T08:57:31.554Z,1.20
2022-08-26T09:00:09.238Z,1.00
2022-08-26T09:02:40.179Z,1.05
2022-08-26T09:05:06.753Z,0.90
2022-08-26T09:07:37.588Z,1.00
2022-08-26T09:10:16.623Z,0.90
2022-08-26T09:12:44.096Z,1.10
2022-08-26T09:15:18.616Z,0.98
2022-08-26T09:17:53.744Z,1.00
2022-08-26T09:20:27.527Z,1.23
2022-08-26T09:22:56.261Z,1.20
2022-08-26T09:25:23.157Z,0.80
2022-08-26T09:27:51.027Z,1.05
2022-08-26T09:30:24.824Z,0.80
2022-08-26T09:32:59.412Z,1.00
2022-08-26T09:35:32.132Z,0.95
2022-08-26T09:37:59.080Z,1.10
2022-08-26T09:40:30.388Z,1.00
2022-08-26T09:43:30.264Z,0.82
2022-08-26T09:46:22.548Z,0.90
2022-08-26T09:48:53.012Z,0.80
2022-08-26T09:51:27.187Z,0.90
2022-08-26T09:53:55.536Z,1.10
2022-08-26T09:56:22.065Z,1.00
2022-08-26T09:58:50.003Z,1.13
2022-08-26T10:01:27.020Z,1.20
2022-08-26T10:04:04.474Z,1.13
2022-08-26T10:06:32.747Z,0.98
2022-08-26T10:09:00.062Z,1.20
2022-08-26T10:11:38.931Z,0.90
2022-08-26T10:14:11.801Z,0.80
2022-08-26T10:16:47.028Z,0.80
2022-08-26T10:19:16.856Z,0.90
2022-08-26T10:21:43.776Z,0.88
2022-08-26T10:24:11.532Z,0.90
